createdAt,value
2023-01-30T10:31:18.907Z,24.55
2023-01-30T10:32:18.731Z,24.64
2023-01-30T10:33:18.702Z,24.70
2023-01-30T10:34:18.678Z,24.75
2023-01-30T10:35:18.670Z,24.80
2023-01-30T10:36:18.709Z,24.85
2023-01-30T10:37:18.658Z,24.88
2023-01-30T10:38:18.667Z,24.93
2023-01-30T10:39:18.680Z,24.96
2023-01-30T10:40:19.002Z,24.98
2023-01-30T10:41:18.666Z,25.07
2023-01-30T10:42:18.635Z,25.17
2023-01-30T10:43:18.635Z,25.23
2023-01-30T10:44:18.618Z,25.30
2023-01-30T10:45:18.573Z,25.36
2023-01-30T10:46:18.567Z,25.42
2023-01-30T10:47:18.576Z,25.47
2023-01-30T10:48:18.589Z,25.47
2023-01-30T10:49:18.586Z,25.47
2023-01-30T10:50:18.998Z,25.45
2023-01-30T10:51:18.559Z,25.47
2023-01-30T10:52:18.572Z,25.47
2023-01-30T10:53:18.569Z,25.47
2023-01-30T10:54:19.845Z,25.47
2023-01-30T10:55:28.142Z,25.47
2023-01-30T10:56:19.501Z,25.47
2023-01-30T10:57:22.293Z,25.47
2023-01-30T10:58:18.501Z,25.49
2023-01-30T10:59:18.503Z,25.48
2023-01-30T11:00:18.723Z,25.48
2023-01-30T11:01:18.457Z,25.50
2023-01-30T11:02:18.463Z,25.50
2023-01-30T11:03:20.310Z,25.51
2023-01-30T11:04:18.446Z,25.53
2023-01-30T11:05:18.773Z,25.54
2023-01-30T11:06:18.445Z,25.57
2023-01-30T11:07:18.444Z,25.58
2023-01-30T11:08:18.409Z,25.59
2023-01-30T11:09:18.413Z,25.59
2023-01-30T11:10:18.417Z,25.60
2023-01-30T11:11:18.453Z,25.61
2023-01-30T11:12:18.400Z,25.62
2023-01-30T11:13:18.370Z,25.63
2023-01-30T11:14:18.364Z,25.64
2023-01-30T11:15:18.620Z,25.65
2023-01-30T11:16:18.442Z,25.66
2023-01-30T11:17:18.333Z,25.67
2023-01-30T11:19:17.767Z,25.67
2023-01-30T11:19:21.553Z,25.73
2023-01-30T11:20:18.624Z,25.81
2023-01-30T11:21:18.342Z,25.88
2023-01-30T11:22:18.304Z,25.92
2023-01-30T11:23:18.298Z,25.90
2023-01-30T11:24:18.316Z,25.88
2023-01-30T11:25:18.599Z,25.84
2023-01-30T11:26:18.293Z,25.83
2023-01-30T11:27:18.349Z,25.82
2023-01-30T11:28:18.290Z,25.82
2023-01-30T11:29:18.286Z,25.82
2023-01-30T11:30:18.497Z,25.81
2023-01-30T11:31:19.759Z,25.80
2023-01-30T11:32:19.315Z,25.80
2023-01-30T11:33:18.227Z,25.80
2023-01-30T11:34:18.246Z,25.80
2023-01-30T11:35:18.294Z,25.82
2023-01-30T11:36:18.189Z,25.82
2023-01-30T11:37:18.169Z,25.82
2023-01-30T11:38:18.190Z,25.82
2023-01-30T11:39:18.167Z,25.83
2023-01-30T11:40:18.768Z,25.83
2023-01-30T11:41:18.209Z,25.84
2023-01-30T11:42:18.143Z,25.84
2023-01-30T11:43:18.133Z,25.84
2023-01-30T11:44:18.141Z,25.84
2023-01-30T11:45:18.621Z,25.86
2023-01-30T11:46:18.135Z,25.86
2023-01-30T11:47:18.125Z,25.87
2023-01-30T11:48:33.281Z,25.87
2023-01-30T11:49:48.247Z,25.87
2023-01-30T11:50:20.184Z,25.99
2023-01-30T11:51:18.088Z,26.38
2023-01-30T11:52:18.068Z,26.63
2023-01-30T11:53:18.090Z,26.71
2023-01-30T11:54:18.116Z,26.72
2023-01-30T11:55:19.089Z,26.72
2023-01-30T11:56:18.202Z,26.69
2023-01-30T11:57:19.002Z,26.66
2023-01-30T12:01:25.625Z,26.20
2023-01-30T12:02:25.735Z,26.40
2023-01-30T12:03:26.166Z,26.40
2023-01-30T12:04:25.592Z,26.49
2023-01-30T12:05:25.547Z,26.52
2023-01-30T12:06:33.299Z,26.48
2023-01-30T12:07:33.277Z,26.20
2023-01-30T12:08:40.668Z,24.86
2023-01-30T12:09:26.534Z,23.01
2023-01-30T12:10:25.545Z,22.16
2023-01-30T12:11:25.556Z,22.18
2023-01-30T12:12:26.151Z,22.36
2023-01-30T12:13:25.559Z,22.61
2023-01-30T12:14:25.512Z,22.87
2023-01-30T12:15:25.521Z,23.12
2023-01-30T12:16:25.512Z,23.33
2023-01-30T12:17:25.502Z,23.53
2023-01-30T12:18:25.492Z,23.70
2023-01-30T12:19:25.461Z,23.84
2023-01-30T12:20:25.450Z,23.97
2023-01-30T12:21:25.449Z,24.07
2023-01-30T12:22:25.432Z,24.18
2023-01-30T12:23:25.469Z,24.25
2023-01-30T12:24:25.443Z,24.32
2023-01-30T12:25:25.492Z,24.40
2023-01-30T12:26:25.408Z,24.45
2023-01-30T12:27:25.450Z,24.48
2023-01-30T12:28:25.366Z,24.49
2023-01-30T12:29:25.368Z,24.53
2023-01-30T12:30:25.393Z,24.56
2023-01-30T12:31:25.358Z,24.61
2023-01-30T12:32:25.329Z,24.62
2023-01-30T12:33:26.248Z,24.64
2023-01-30T12:34:27.219Z,24.65
2023-01-30T12:35:25.337Z,24.69
2023-01-30T12:36:25.418Z,24.71
2023-01-30T12:37:25.313Z,24.74
2023-01-30T12:38:25.328Z,24.77
2023-01-30T12:39:25.287Z,24.80
2023-01-30T12:40:26.298Z,24.81
2023-01-30T12:41:25.320Z,24.82
2023-01-30T12:42:25.899Z,24.82
2023-01-30T12:43:25.269Z,24.84
2023-01-30T12:44:25.270Z,24.85
2023-01-30T12:45:25.372Z,24.85
2023-01-30T12:46:25.297Z,24.85
2023-01-30T12:47:25.280Z,24.85
2023-01-30T12:48:25.226Z,24.86
2023-01-30T12:49:25.234Z,24.85
2023-01-30T12:50:25.247Z,24.86
2023-01-30T12:51:25.176Z,24.86
2023-01-30T12:52:25.175Z,24.87
2023-01-30T12:53:25.220Z,24.89
2023-01-30T12:54:25.237Z,24.89
2023-01-30T12:55:25.156Z,24.90
2023-01-30T12:56:25.148Z,24.91
2023-01-30T12:57:25.132Z,24.90
2023-01-30T12:58:25.109Z,24.91
2023-01-30T12:59:25.133Z,24.91
2023-01-30T13:00:25.207Z,24.92
2023-01-30T13:01:25.248Z,24.94
2023-01-30T13:02:26.496Z,24.94
2023-01-30T13:03:25.094Z,24.90
2023-01-30T13:04:25.102Z,24.84
2023-01-30T13:05:25.094Z,24.75
2023-01-30T13:06:25.074Z,24.67
2023-01-30T13:07:25.102Z,24.59
2023-01-30T13:08:25.073Z,24.52
2023-01-30T13:09:25.036Z,24.40
2023-01-30T13:10:25.057Z,24.34
2023-01-30T13:11:25.053Z,24.25
2023-01-30T13:12:25.045Z,24.18
2023-01-30T13:13:25.059Z,24.13
2023-01-30T13:14:25.046Z,24.08
2023-01-30T13:15:24.995Z,24.00
2023-01-30T13:16:25.013Z,23.93
2023-01-30T13:17:25.010Z,23.87
2023-01-30T13:18:24.964Z,23.81
2023-01-30T13:19:25.480Z,23.70
2023-01-30T13:20:24.992Z,23.61
2023-01-30T13:21:24.977Z,23.55
2023-01-30T13:22:25.678Z,23.52
2023-01-30T13:23:24.941Z,23.51
2023-01-30T13:24:24.958Z,23.49
2023-01-30T13:25:24.907Z,23.45
2023-01-30T13:26:25.027Z,23.44
2023-01-30T13:27:24.940Z,23.27
2023-01-30T13:28:26.066Z,23.25
2023-01-30T13:29:24.902Z,23.24
2023-01-30T13:30:24.913Z,23.24
2023-01-30T13:31:25.062Z,23.25
2023-01-30T13:32:24.974Z,22.97
2023-01-30T13:33:24.864Z,22.89
2023-01-30T13:34:24.910Z,22.97
2023-01-30T13:35:24.839Z,23.07
2023-01-30T13:36:24.858Z,23.17
2023-01-30T13:37:24.904Z,23.28
2023-01-30T13:38:24.846Z,23.36
2023-01-30T13:39:24.846Z,23.45
2023-01-30T13:40:25.024Z,23.52
2023-01-30T13:41:24.814Z,23.59
2023-01-30T13:42:24.817Z,23.65
2023-01-30T13:43:24.792Z,23.70
2023-01-30T13:44:24.794Z,23.75
2023-01-30T13:45:24.906Z,23.80
2023-01-30T13:46:24.804Z,23.84
2023-01-30T13:47:24.881Z,23.89
2023-01-30T13:48:24.828Z,23.93
2023-01-30T13:49:24.726Z,23.98
2023-01-30T13:50:24.705Z,24.01
2023-01-30T13:51:24.735Z,24.05
2023-01-30T13:52:24.740Z,24.08
2023-01-30T13:53:24.752Z,24.12
2023-01-30T13:54:24.699Z,24.15
2023-01-30T13:55:24.748Z,24.18
2023-01-30T13:56:40.668Z,24.20
2023-01-30T13:57:25.752Z,24.23
2023-01-30T13:58:25.275Z,24.25
2023-01-30T13:59:24.624Z,24.27
2023-01-30T14:00:24.674Z,24.29
2023-01-30T14:01:24.710Z,24.30
2023-01-30T14:02:24.707Z,24.32
2023-01-30T14:03:24.616Z,24.33
2023-01-30T14:04:24.629Z,24.35
2023-01-30T14:05:31.803Z,24.36
2023-01-30T14:06:25.594Z,24.37
2023-01-30T14:07:24.586Z,24.39
2023-01-30T14:08:24.598Z,24.41
2023-01-30T14:09:24.571Z,24.43
2023-01-30T14:10:24.662Z,24.47
2023-01-30T14:11:24.540Z,24.57
2023-01-30T14:12:24.555Z,24.57
2023-01-30T14:13:24.533Z,24.57
2023-01-30T14:14:24.538Z,24.56
2023-01-30T14:15:25.197Z,24.57
2023-01-30T14:16:24.567Z,24.58
2023-01-30T14:17:24.512Z,24.57
2023-01-30T14:18:24.512Z,24.58
2023-01-30T14:19:25.686Z,24.59
2023-01-30T14:20:24.516Z,24.59
2023-01-30T14:21:24.534Z,24.60
2023-01-30T14:22:24.482Z,24.60
2023-01-30T14:23:24.452Z,24.62
2023-01-30T14:24:24.420Z,24.62
2023-01-30T14:25:24.452Z,24.64
2023-01-30T14:26:24.464Z,24.66
2023-01-30T14:27:24.465Z,24.67
